Skip Navigation Links
NOAA logo - Click to go to the NOAA homepage
NOAA's National Weather Service
Alaska Aviation Weather Unit
  NWS logo - Click to go to the NWS homepage
Left Navbar Graphic     22 AKDT = 06 GMT

   
NOAA is celebrating 200 years of science, service, and stewardship. Visit the NOAA 200th celebration Web site to learn more.
USA.gov is the U.S. Government's official Web portal to all Federal, state and local government Web resources and services.
Facebook
NWS on Facebook

Important Change Regarding the AAWU Web Presence

 

Over the last several months, the AAWU has been working to navigate its webpages to a nationally supported server. Security, as well as other needs, have necessitated the change.  In the process, we have made an effort to enhance the functionality of our website, as well as some of our products. As of June 20, 2017, aawu.arh.noaa.gov will be discontinued. The new AAWU web address is weather.gov/aawu. It is now live and will run in-parallel with the old site until it is discontinued. Please send any feedback or questions regarding the new webpages to nws.ar.aawu.webauthors@noaa.gov.  Thank you for your patience during this time of transition.
AAWU Home :: Display TAF Add Bookmark
PATE 280007Z AUTO VRB04KT 1 1/2SM -RA BR BKN005 OVC009 03/02 A2989
     RMK AO2 VIS 1/4V5 CIG 002V008 P0001 $=

PATE 280019Z AUTO 29007KT 1SM -RA BR OVC003 03/02 A2990 RMK AO2
     VIS 1/4V5 CIG 002V008 P0001 $=

SPECI PATE 280024Z AUTO 29007KT 1/2SM -RA FG BKN003 BKN014 OVC055 03/02
     A2990 RMK AO2 VIS 1/4V2 1/2 CIG 002V008 P0001 $=

SPECI PATE 280044Z AUTO 33007KT 1SM -RA BR BKN003 BKN055 OVC100
 02/02 A2990 RMK AO2 VIS 1/4V2 1/2 CIG 002V012 P0001 FZRANO $=

METAR PATE 280056Z AUTO 34006KT 2 1/2SM -RA BR BKN003 BKN013 OVC100
 02/02 A2990 RMK AO2 CIG 001V006 SLP130 P0001 T00220017 FZRANO $=

SPECI PATE 280103Z AUTO 36006KT 10SM BKN003 BKN013 OVC100 02/01 A2990
     RMK AO2 RAE0058 P0000 FZRANO $=

SPECI PATE 280114Z AUTO 36006KT 8SM -RA SCT003 BKN011 OVC019 02/01 A2990
     RMK AO2 UPB07E10 P0000 FZRANO $=

SPECI PATE 280124Z AUTO 35006KT 10SM -RA FEW003 BKN016 OVC022 02/01
 A2990 RMK AO2 UPB07E10 P0000 FZRANO $=

SPECI PATE 280145Z AUTO 32005KT 8SM RA BKN011 BKN017 OVC023 02/01 A2990
     RMK AO2 UPB07E10 P0001 FZRANO $=

PATE 280154Z AUTO 32005KT 6SM -RA BR SCT011 OVC018 02/01 A2990 RMK
     AO2 UPB07E10 P0002 FZRANO $=

METAR PATE 280156Z AUTO 32006KT 7SM -RA SCT011 BKN016 OVC021 02/01
 A2990 RMK AO2 UPB07E10 SLP133 P0002 T00170011 FZRANO $=

PATE 280227Z AUTO 34003KT 10SM -RA SCT009 BKN017 OVC024 02/01
     A2990 RMK AO2 P0000 FZRANO $=

PATE 280254Z AUTO 34005KT 10SM BKN011 OVC017 02/01 A2990 RMK AO2
     RAE37 P0000 FZRANO $=

METAR PATE 280256Z AUTO 34005KT 10SM BKN011 OVC017 02/01 A2990 RMK
 AO2 RAE37 SLP132 P0000 60003 T00220011 57000 FZRANO $=

PATE 280315Z AUTO 30006KT 10SM FEW011 SCT018 OVC055 03/01 A2991
     RMK AO2 $=

SPECI PATE 280331Z AUTO 29007KT 10SM FEW005 BKN027 OVC055 02/01 A2991
     RMK AO2 FZRANO $=

PATE 280351Z AUTO 32005KT 10SM FEW005 BKN045 OVC050 03/02 A2991
     RMK AO2 $=

METAR PATE 280356Z AUTO 33006KT 10SM SCT005 BKN017 OVC050 02/01 A2991
     RMK AO2 CIG 012V022 SLP134 T00220011 FZRANO $=

SPECI PATE 280405Z AUTO 34006KT 10SM BKN005 BKN045 OVC050 02/01 A2991
     RMK AO2 CIG 004V012 FZRANO $=

SPECI PATE 280430Z AUTO 35005KT 10SM UP SCT005 BKN014 OVC019 02/01 A2991
     RMK AO2 UPB22 P0000 FZRANO $=

PATE 280453Z AUTO 01004KT 10SM BKN017 OVC021 02/01 A2991 RMK AO2
     UPB22E41 P0000 FZRANO $=

METAR PATE 280456Z AUTO 01003KT 10SM BKN017 OVC027 02/01 A2991 RMK
 AO2 UPB22E41 SLP134 P0000 T00220006 FZRANO $=

SPECI PATE 280546Z AUTO 31003KT 10SM BKN013 OVC018 03/01 A2991 RMK AO2
     $=

METAR PATE 280556Z AUTO 28003KT 10SM OVC015 02/01 A2992 RMK AO2
 SLP137 60003 T00220006 10033 20017 52003 FZRANO $=

SPECI PATE 280603Z AUTO 28005KT 10SM BKN013 OVC018 03/01 A2992 RMK AO2
     $=

SPECI PATE 280610Z AUTO 27005KT 10SM OVC015 03/01 A2992 RMK AO2 $=

SPECI PATE 280618Z AUTO 29004KT 10SM BKN013 OVC020 03/01 A2992 RMK AO2
     $=


NOAA's National Weather Service
Alaska Aviation Weather Unit
6930 Sand Lake Road
Anchorage, AK 99502-1845
Disclaimer
Credits
Glossary
Privacy Policy
About Us
Career Opportunities
Contact AAWU Internet Services Site last modified: April, 17th 2012